sensor_id;sensor_type;location;lat;lon;timestamp;pressure;altitude;pressure_sealevel;temperature;humidity
59757;BME280;45631;51.962;5.974;2022-12-31T00:00:48;100105.97;;;11.65;100.00
59757;BME280;45631;51.962;5.974;2022-12-31T00:03:18;100108.38;;;11.69;100.00
59757;BME280;45631;51.962;5.974;2022-12-31T00:05:46;100110.03;;;11.70;100.00
59757;BME280;45631;51.962;5.974;2022-12-31T00:08:14;100121.41;;;11.70;100.00
59757;BME280;45631;51.962;5.974;2022-12-31T00:10:42;100114.22;;;11.72;100.00
59757;BME280;45631;51.962;5.974;2022-12-31T00:13:11;100116.28;;;11.69;100.00
59757;BME280;45631;51.962;5.974;2022-12-31T00:15:40;100117.56;;;11.74;100.00
59757;BME280;45631;51.962;5.974;2022-12-31T00:18:11;100132.53;;;11.74;100.00
59757;BME280;45631;51.962;5.974;2022-12-31T00:20:41;100129.66;;;11.77;100.00
59757;BME280;45631;51.962;5.974;2022-12-31T00:23:10;100124.63;;;11.74;100.00
59757;BME280;45631;51.962;5.974;2022-12-31T00:25:38;100127.50;;;11.71;100.00
59757;BME280;45631;51.962;5.974;2022-12-31T00:28:06;100128.38;;;11.71;100.00
59757;BME280;45631;51.962;5.974;2022-12-31T00:30:34;100134.72;;;11.69;100.00
59757;BME280;45631;51.962;5.974;2022-12-31T00:33:02;100133.38;;;11.74;100.00
59757;BME280;45631;51.962;5.974;2022-12-31T00:35:30;100123.09;;;11.71;100.00
59757;BME280;45631;51.962;5.974;2022-12-31T00:38:01;100126.44;;;11.73;100.00
59757;BME280;45631;51.962;5.974;2022-12-31T00:40:29;100134.22;;;11.75;100.00
59757;BME280;45631;51.962;5.974;2022-12-31T00:42:58;100134.22;;;11.75;100.00
59757;BME280;45631;51.962;5.974;2022-12-31T00:45:26;100129.88;;;11.74;100.00
59757;BME280;45631;51.962;5.974;2022-12-31T00:47:54;100130.63;;;11.76;100.00
59757;BME280;45631;51.962;5.974;2022-12-31T00:50:22;100124.53;;;11.75;100.00
59757;BME280;45631;51.962;5.974;2022-12-31T00:52:51;100151.69;;;11.76;100.00
59757;BME280;45631;51.962;5.974;2022-12-31T00:55:20;100149.44;;;11.71;100.00
59757;BME280;45631;51.962;5.974;2022-12-31T00:57:48;100140.22;;;11.65;100.00
59757;BME280;45631;51.962;5.974;2022-12-31T01:00:16;100137.13;;;11.60;100.00
59757;BME280;45631;51.962;5.974;2022-12-31T01:02:45;100138.22;;;11.58;100.00
59757;BME280;45631;51.962;5.974;2022-12-31T01:05:13;100143.63;;;11.56;100.00
59757;BME280;45631;51.962;5.974;2022-12-31T01:07:41;100151.50;;;11.56;100.00
59757;BME280;45631;51.962;5.974;2022-12-31T01:10:13;100146.72;;;11.50;100.00
59757;BME280;45631;51.962;5.974;2022-12-31T01:13:03;100145.91;;;11.49;100.00
59757;BME280;45631;51.962;5.974;2022-12-31T01:15:32;100146.38;;;11.43;100.00
59757;BME280;45631;51.962;5.974;2022-12-31T01:18:01;100146.03;;;11.37;100.00
59757;BME280;45631;51.962;5.974;2022-12-31T01:20:29;100157.16;;;11.40;100.00
59757;BME280;45631;51.962;5.974;2022-12-31T01:22:57;100165.06;;;11.29;100.00
59757;BME280;45631;51.962;5.974;2022-12-31T01:25:25;100153.81;;;11.27;100.00
59757;BME280;45631;51.962;5.974;2022-12-31T01:27:53;100149.16;;;11.30;100.00
59757;BME280;45631;51.962;5.974;2022-12-31T01:30:23;100141.25;;;11.30;100.00
59757;BME280;45631;51.962;5.974;2022-12-31T01:32:51;100154.31;;;11.32;100.00
59757;BME280;45631;51.962;5.974;2022-12-31T01:35:19;100131.94;;;11.26;100.00
59757;BME280;45631;51.962;5.974;2022-12-31T01:37:47;100131.22;;;11.24;100.00
59757;BME280;45631;51.962;5.974;2022-12-31T01:40:15;100131.22;;;11.24;100.00
59757;BME280;45631;51.962;5.974;2022-12-31T01:42:44;100119.84;;;11.24;100.00
59757;BME280;45631;51.962;5.974;2022-12-31T01:45:12;100129.44;;;11.25;100.00
59757;BME280;45631;51.962;5.974;2022-12-31T01:47:44;100129.06;;;11.29;100.00
59757;BME280;45631;51.962;5.974;2022-12-31T01:50:16;100138.84;;;11.27;100.00
59757;BME280;45631;51.962;5.974;2022-12-31T01:52:48;100144.38;;;11.24;100.00
59757;BME280;45631;51.962;5.974;2022-12-31T01:55:19;100148.56;;;11.27;100.00
59757;BME280;45631;51.962;5.974;2022-12-31T01:57:50;100159.69;;;11.19;100.00
59757;BME280;45631;51.962;5.974;2022-12-31T02:00:19;100148.81;;;11.24;100.00
59757;BME280;45631;51.962;5.974;2022-12-31T02:02:49;100149.75;;;11.23;100.00
59757;BME280;45631;51.962;5.974;2022-12-31T02:05:21;100153.47;;;11.20;100.00
59757;BME280;45631;51.962;5.974;2022-12-31T02:07:51;100159.56;;;11.21;100.00
59757;BME280;45631;51.962;5.974;2022-12-31T02:10:20;100161.72;;;11.15;100.00
59757;BME280;45631;51.962;5.974;2022-12-31T02:12:49;100164.94;;;11.19;100.00
59757;BME280;45631;51.962;5.974;2022-12-31T02:15:22;100183.63;;;11.16;100.00
59757;BME280;45631;51.962;5.974;2022-12-31T02:17:56;100185.41;;;11.15;100.00
59757;BME280;45631;51.962;5.974;2022-12-31T02:20:58;100193.78;;;11.09;100.00
59757;BME280;45631;51.962;5.974;2022-12-31T02:26:57;100209.44;;;11.11;100.00
59757;BME280;45631;51.962;5.974;2022-12-31T02:35:31;100140.44;;;11.07;100.00
59757;BME280;45631;51.962;5.974;2022-12-31T02:38:02;100133.75;;;11.03;100.00
59757;BME280;45631;51.962;5.974;2022-12-31T02:40:33;100138.03;;;11.04;100.00
59757;BME280;45631;51.962;5.974;2022-12-31T02:43:02;100142.34;;;11.05;100.00
59757;BME280;45631;51.962;5.974;2022-12-31T02:45:33;100139.72;;;11.05;100.00
59757;BME280;45631;51.962;5.974;2022-12-31T02:48:28;100122.16;;;11.06;100.00
59757;BME280;45631;51.962;5.974;2022-12-31T02:51:09;100131.13;;;11.03;100.00
59757;BME280;45631;51.962;5.974;2022-12-31T02:56:45;100149.53;;;11.03;100.00
59757;BME280;45631;51.962;5.974;2022-12-31T02:59:20;100139.00;;;11.03;100.00
59757;BME280;45631;51.962;5.974;2022-12-31T03:02:11;100147.50;;;10.95;100.00
59757;BME280;45631;51.962;5.974;2022-12-31T03:04:45;100143.44;;;10.91;100.00
59757;BME280;45631;51.962;5.974;2022-12-31T03:07:18;100143.31;;;10.81;100.00
59757;BME280;45631;51.962;5.974;2022-12-31T03:09:47;100148.19;;;10.86;100.00
59757;BME280;45631;51.962;5.974;2022-12-31T03:12:17;100151.78;;;10.85;100.00
59757;BME280;45631;51.962;5.974;2022-12-31T03:15:05;100143.06;;;10.85;100.00
59757;BME280;45631;51.962;5.974;2022-12-31T03:17:48;100150.00;;;10.86;100.00
59757;BME280;45631;51.962;5.974;2022-12-31T03:20:18;100153.72;;;10.83;100.00
59757;BME280;45631;51.962;5.974;2022-12-31T03:23:06;100154.53;;;10.83;100.00
59757;BME280;45631;51.962;5.974;2022-12-31T03:25:34;100157.28;;;10.82;100.00
59757;BME280;45631;51.962;5.974;2022-12-31T03:28:03;100150.13;;;10.84;100.00
59757;BME280;45631;51.962;5.974;2022-12-31T03:30:32;100160.88;;;10.81;100.00
59757;BME280;45631;51.962;5.974;2022-12-31T03:33:02;100161.59;;;10.83;100.00
59757;BME280;45631;51.962;5.974;2022-12-31T03:35:33;100167.81;;;10.82;100.00
59757;BME280;45631;51.962;5.974;2022-12-31T03:38:03;100159.78;;;10.83;100.00
59757;BME280;45631;51.962;5.974;2022-12-31T03:40:32;100161.72;;;10.81;100.00
59757;BME280;45631;51.962;5.974;2022-12-31T03:43:04;100169.72;;;10.80;100.00
59757;BME280;45631;51.962;5.974;2022-12-31T03:45:32;100170.56;;;10.80;100.00
59757;BME280;45631;51.962;5.974;2022-12-31T03:48:01;100168.06;;;10.79;100.00
59757;BME280;45631;51.962;5.974;2022-12-31T03:50:29;100158.34;;;10.79;100.00
59757;BME280;45631;51.962;5.974;2022-12-31T03:52:59;100150.34;;;10.81;100.00
59757;BME280;45631;51.962;5.974;2022-12-31T03:55:27;100156.59;;;10.80;100.00
59757;BME280;45631;51.962;5.974;2022-12-31T03:57:56;100161.97;;;10.78;100.00
59757;BME280;45631;51.962;5.974;2022-12-31T04:00:24;100166.97;;;10.81;100.00
59757;BME280;45631;51.962;5.974;2022-12-31T04:02:52;100172.69;;;10.75;100.00
59757;BME280;45631;51.962;5.974;2022-12-31T04:05:21;100165.28;;;10.80;100.00
59757;BME280;45631;51.962;5.974;2022-12-31T04:07:50;100171.50;;;10.79;100.00
59757;BME280;45631;51.962;5.974;2022-12-31T04:10:20;100165.53;;;10.77;100.00
59757;BME280;45631;51.962;5.974;2022-12-31T04:12:50;100169.25;;;10.75;100.00
59757;BME280;45631;51.962;5.974;2022-12-31T04:15:20;100167.31;;;10.77;100.00
59757;BME280;45631;51.962;5.974;2022-12-31T04:17:48;100165.88;;;10.73;100.00
59757;BME280;45631;51.962;5.974;2022-12-31T04:20:16;100165.75;;;10.74;100.00
59757;BME280;45631;51.962;5.974;2022-12-31T04:22:44;100168.06;;;10.79;100.00
59757;BME280;45631;51.962;5.974;2022-12-31T04:25:12;100151.78;;;10.74;100.00
59757;BME280;45631;51.962;5.974;2022-12-31T04:27:42;100156.09;;;10.75;100.00
59757;BME280;45631;51.962;5.974;2022-12-31T04:30:12;100148.44;;;10.72;100.00
59757;BME280;45631;51.962;5.974;2022-12-31T04:32:40;100152.72;;;10.73;100.00
59757;BME280;45631;51.962;5.974;2022-12-31T04:35:10;100156.09;;;10.75;100.00
59757;BME280;45631;51.962;5.974;2022-12-31T04:37:38;100161.22;;;10.76;100.00
59757;BME280;45631;51.962;5.974;2022-12-31T04:40:07;100153.09;;;10.79;100.00
59757;BME280;45631;51.962;5.974;2022-12-31T04:42:36;100153.22;;;10.78;100.00
59757;BME280;45631;51.962;5.974;2022-12-31T04:45:06;100152.28;;;10.79;100.00
59757;BME280;45631;51.962;5.974;2022-12-31T04:47:35;100141.50;;;10.82;100.00
59757;BME280;45631;51.962;5.974;2022-12-31T04:50:03;100140.91;;;10.78;100.00
59757;BME280;45631;51.962;5.974;2022-12-31T04:52:32;100137.44;;;10.78;100.00
59757;BME280;45631;51.962;5.974;2022-12-31T04:55:08;100133.13;;;10.77;100.00
59757;BME280;45631;51.962;5.974;2022-12-31T04:57:37;100144.38;;;10.79;100.00
59757;BME280;45631;51.962;5.974;2022-12-31T05:00:08;100135.88;;;10.75;100.00
59757;BME280;45631;51.962;5.974;2022-12-31T05:02:36;100136.50;;;10.79;100.00
59757;BME280;45631;51.962;5.974;2022-12-31T05:05:05;100132.91;;;10.80;100.00
59757;BME280;45631;51.962;5.974;2022-12-31T05:07:33;100120.72;;;10.79;100.00
59757;BME280;45631;51.962;5.974;2022-12-31T05:10:01;100132.91;;;10.80;100.00
59757;BME280;45631;51.962;5.974;2022-12-31T05:12:29;100134.47;;;10.82;100.00
59757;BME280;45631;51.962;5.974;2022-12-31T05:14:58;100134.56;;;10.81;100.00
59757;BME280;45631;51.962;5.974;2022-12-31T05:17:27;100148.56;;;10.81;100.00
59757;BME280;45631;51.962;5.974;2022-12-31T05:19:56;100154.41;;;10.85;100.00
59757;BME280;45631;51.962;5.974;2022-12-31T05:22:26;100149.16;;;10.85;100.00
59757;BME280;45631;51.962;5.974;2022-12-31T05:24:57;100151.44;;;10.90;100.00
59757;BME280;45631;51.962;5.974;2022-12-31T05:27:27;100155.16;;;10.87;100.00
59757;BME280;45631;51.962;5.974;2022-12-31T05:29:57;100149.06;;;10.87;100.00
59757;BME280;45631;51.962;5.974;2022-12-31T05:32:25;100157.78;;;10.87;100.00
59757;BME280;45631;51.962;5.974;2022-12-31T05:34:55;100173.31;;;10.90;100.00
59757;BME280;45631;51.962;5.974;2022-12-31T05:37:23;100151.69;;;10.98;100.00
59757;BME280;45631;51.962;5.974;2022-12-31T05:39:51;100170.94;;;10.98;100.00
59757;BME280;45631;51.962;5.974;2022-12-31T05:42:19;100154.19;;;10.99;100.00
59757;BME280;45631;51.962;5.974;2022-12-31T05:44:48;100160.88;;;11.04;100.00
59757;BME280;45631;51.962;5.974;2022-12-31T05:47:17;100162.56;;;11.05;100.00
59757;BME280;45631;51.962;5.974;2022-12-31T05:49:45;100162.69;;;11.03;100.00
59757;BME280;45631;51.962;5.974;2022-12-31T05:52:15;100160.88;;;11.04;100.00
59757;BME280;45631;51.962;5.974;2022-12-31T05:54:43;100169.72;;;11.03;100.00
59757;BME280;45631;51.962;5.974;2022-12-31T05:57:11;100164.13;;;11.07;100.00
59757;BME280;45631;51.962;5.974;2022-12-31T05:59:39;100172.72;;;11.09;100.00
59757;BME280;45631;51.962;5.974;2022-12-31T06:02:07;100166.25;;;11.13;100.00
59757;BME280;45631;51.962;5.974;2022-12-31T06:04:35;100169.16;;;11.10;100.00
59757;BME280;45631;51.962;5.974;2022-12-31T06:07:03;100176.22;;;11.10;100.00
59757;BME280;45631;51.962;5.974;2022-12-31T06:09:33;100172.84;;;11.08;100.00
59757;BME280;45631;51.962;5.974;2022-12-31T06:12:01;100179.66;;;11.10;100.00
59757;BME280;45631;51.962;5.974;2022-12-31T06:14:32;100180.50;;;11.11;100.00
59757;BME280;45631;51.962;5.974;2022-12-31T06:17:00;100185.63;;;11.12;100.00
59757;BME280;45631;51.962;5.974;2022-12-31T06:19:29;100175.34;;;11.09;100.00
59757;BME280;45631;51.962;5.974;2022-12-31T06:21:57;100180.38;;;11.12;100.00
59757;BME280;45631;51.962;5.974;2022-12-31T06:24:25;100176.78;;;11.13;100.00
59757;BME280;45631;51.962;5.974;2022-12-31T06:26:55;100177.53;;;11.15;100.00
59757;BME280;45631;51.962;5.974;2022-12-31T06:29:23;100175.47;;;11.19;100.00
59757;BME280;45631;51.962;5.974;2022-12-31T06:31:51;100177.16;;;11.20;100.00
59757;BME280;45631;51.962;5.974;2022-12-31T06:34:19;100181.22;;;11.24;100.00
59757;BME280;45631;51.962;5.974;2022-12-31T06:36:47;100183.25;;;11.32;100.00
59757;BME280;45631;51.962;5.974;2022-12-31T06:39:15;100179.66;;;11.33;100.00
59757;BME280;45631;51.962;5.974;2022-12-31T06:41:44;100183.63;;;11.39;100.00
59757;BME280;45631;51.962;5.974;2022-12-31T06:44:13;100186.72;;;11.44;100.00
59757;BME280;45631;51.962;5.974;2022-12-31T06:46:41;100187.78;;;11.53;100.00
59757;BME280;45631;51.962;5.974;2022-12-31T06:49:10;100199.34;;;11.61;100.00
59757;BME280;45631;51.962;5.974;2022-12-31T06:51:38;100174.09;;;11.70;100.00
59757;BME280;45631;51.962;5.974;2022-12-31T06:54:06;100183.69;;;11.71;100.00
59757;BME280;45631;51.962;5.974;2022-12-31T06:56:35;100187.22;;;11.81;100.00
59757;BME280;45631;51.962;5.974;2022-12-31T06:59:03;100188.91;;;11.82;100.00
59757;BME280;45631;51.962;5.974;2022-12-31T07:01:48;100197.63;;;11.83;100.00
59757;BME280;45631;51.962;5.974;2022-12-31T07:04:41;100205.41;;;11.84;100.00
59757;BME280;45631;51.962;5.974;2022-12-31T07:07:15;100202.44;;;11.89;100.00
59757;BME280;45631;51.962;5.974;2022-12-31T07:09:54;100191.16;;;11.87;100.00
59757;BME280;45631;51.962;5.974;2022-12-31T07:12:35;100187.69;;;11.87;100.00
59757;BME280;45631;51.962;5.974;2022-12-31T07:15:10;100184.69;;;11.91;100.00
59757;BME280;45631;51.962;5.974;2022-12-31T07:17:49;100179.41;;;11.91;100.00
59757;BME280;45631;51.962;5.974;2022-12-31T07:20:20;100176.78;;;11.91;100.00
59757;BME280;45631;51.962;5.974;2022-12-31T07:22:49;100174.00;;;11.93;100.00
59757;BME280;45631;51.962;5.974;2022-12-31T07:25:18;100186.88;;;11.97;100.00
59757;BME280;45631;51.962;5.974;2022-12-31T07:28:00;100179.66;;;11.99;100.00
59757;BME280;45631;51.962;5.974;2022-12-31T07:30:38;100184.94;;;11.99;100.00
59757;BME280;45631;51.962;5.974;2022-12-31T07:33:21;100177.88;;;12.00;100.00
59757;BME280;45631;51.962;5.974;2022-12-31T07:35:59;100180.38;;;12.02;100.00
59757;BME280;45631;51.962;5.974;2022-12-31T07:38:35;100181.09;;;12.04;100.00
59757;BME280;45631;51.962;5.974;2022-12-31T07:41:10;100181.81;;;12.06;100.00
59757;BME280;45631;51.962;5.974;2022-12-31T07:43:49;100179.75;;;12.09;100.00
59757;BME280;45631;51.962;5.974;2022-12-31T07:46:27;100171.72;;;12.11;100.00
59757;BME280;45631;51.962;5.974;2022-12-31T07:48:59;100177.69;;;12.13;100.00
59757;BME280;45631;51.962;5.974;2022-12-31T07:51:28;100191.47;;;12.16;100.00
59757;BME280;45631;51.962;5.974;2022-12-31T07:53:56;100194.09;;;12.16;100.00
59757;BME280;45631;51.962;5.974;2022-12-31T07:56:24;100217.69;;;12.18;100.00
59757;BME280;45631;51.962;5.974;2022-12-31T07:59:01;100209.28;;;12.24;100.00
59757;BME280;45631;51.962;5.974;2022-12-31T08:01:37;100212.16;;;12.32;100.00
59757;BME280;45631;51.962;5.974;2022-12-31T08:04:17;100186.88;;;12.30;100.00
59757;BME280;45631;51.962;5.974;2022-12-31T08:06:55;100173.56;;;12.31;100.00
59757;BME280;45631;51.962;5.974;2022-12-31T08:09:38;100169.81;;;12.34;100.00
59757;BME280;45631;51.962;5.974;2022-12-31T08:12:08;100180.94;;;12.38;100.00
59757;BME280;45631;51.962;5.974;2022-12-31T08:14:42;100198.91;;;12.44;100.00
59757;BME280;45631;51.962;5.974;2022-12-31T08:17:11;100208.50;;;12.45;100.00
59757;BME280;45631;51.962;5.974;2022-12-31T08:19:42;100247.78;;;12.48;100.00
59757;BME280;45631;51.962;5.974;2022-12-31T08:22:33;100267.06;;;12.48;100.00
59757;BME280;45631;51.962;5.974;2022-12-31T08:25:13;100242.66;;;12.35;100.00
59757;BME280;45631;51.962;5.974;2022-12-31T08:27:54;100245.22;;;12.25;100.00
59757;BME280;45631;51.962;5.974;2022-12-31T08:30:36;100241.16;;;12.21;100.00
59757;BME280;45631;51.962;5.974;2022-12-31T08:33:12;100256.06;;;12.11;100.00
59757;BME280;45631;51.962;5.974;2022-12-31T08:35:51;100258.22;;;12.06;100.00
59757;BME280;45631;51.962;5.974;2022-12-31T08:38:30;100272.38;;;12.05;100.00
59757;BME280;45631;51.962;5.974;2022-12-31T08:41:09;100262.66;;;12.05;100.00
59757;BME280;45631;51.962;5.974;2022-12-31T08:43:49;100277.75;;;12.03;100.00
59757;BME280;45631;51.962;5.974;2022-12-31T08:46:32;100285.66;;;12.03;100.00
59757;BME280;45631;51.962;5.974;2022-12-31T08:49:03;100277.63;;;12.05;100.00
59757;BME280;45631;51.962;5.974;2022-12-31T08:51:33;100290.13;;;12.03;100.00
59757;BME280;45631;51.962;5.974;2022-12-31T08:54:02;100307.44;;;12.05;100.00
59757;BME280;45631;51.962;5.974;2022-12-31T08:56:31;100313.47;;;12.07;100.00
59757;BME280;45631;51.962;5.974;2022-12-31T08:59:17;100338.84;;;12.08;100.00
59757;BME280;45631;51.962;5.974;2022-12-31T09:02:16;100332.03;;;12.06;100.00
59757;BME280;45631;51.962;5.974;2022-12-31T09:04:55;100316.81;;;12.09;100.00
59757;BME280;45631;51.962;5.974;2022-12-31T09:07:32;100332.72;;;12.08;100.00
59757;BME280;45631;51.962;5.974;2022-12-31T09:10:10;100347.59;;;12.09;100.00
59757;BME280;45631;51.962;5.974;2022-12-31T09:12:48;100359.81;;;12.10;100.00
59757;BME280;45631;51.962;5.974;2022-12-31T09:15:24;100363.41;;;12.09;100.00
59757;BME280;45631;51.962;5.974;2022-12-31T09:17:54;100357.88;;;12.12;100.00
59757;BME280;45631;51.962;5.974;2022-12-31T09:20:24;100357.88;;;12.12;100.00
59757;BME280;45631;51.962;5.974;2022-12-31T09:23:11;100359.31;;;12.16;100.00
59757;BME280;45631;51.962;5.974;2022-12-31T09:25:47;100373.94;;;12.20;100.00
59757;BME280;45631;51.962;5.974;2022-12-31T09:28:33;100372.72;;;12.24;100.00
59757;BME280;45631;51.962;5.974;2022-12-31T09:31:08;100380.88;;;12.32;100.00
59757;BME280;45631;51.962;5.974;2022-12-31T09:33:41;100376.69;;;12.30;100.00
59757;BME280;45631;51.962;5.974;2022-12-31T09:36:17;100383.41;;;12.34;100.00
59757;BME280;45631;51.962;5.974;2022-12-31T09:38:52;100386.59;;;12.38;100.00
59757;BME280;45631;51.962;5.974;2022-12-31T09:41:44;100374.97;;;12.40;100.00
59757;BME280;45631;51.962;5.974;2022-12-31T09:44:41;100385.41;;;12.42;100.00
59757;BME280;45631;51.962;5.974;2022-12-31T09:50:42;100381.69;;;12.56;100.00
59757;BME280;45631;51.962;5.974;2022-12-31T09:53:29;100379.25;;;12.64;100.00
59757;BME280;45631;51.962;5.974;2022-12-31T09:56:03;100382.44;;;12.79;100.00
59757;BME280;45631;51.962;5.974;2022-12-31T09:58:40;100371.38;;;12.85;100.00
59757;BME280;45631;51.962;5.974;2022-12-31T10:01:19;100370.81;;;13.02;100.00
59757;BME280;45631;51.962;5.974;2022-12-31T10:07:14;100387.19;;;13.17;100.00
59757;BME280;45631;51.962;5.974;2022-12-31T10:09:58;100385.84;;;13.23;100.00
59757;BME280;45631;51.962;5.974;2022-12-31T10:12:41;100397.94;;;13.26;100.00
59757;BME280;45631;51.962;5.974;2022-12-31T10:18:31;100390.34;;;13.32;100.00
59757;BME280;45631;51.962;5.974;2022-12-31T10:21:12;100391.81;;;13.37;100.00
59757;BME280;45631;51.962;5.974;2022-12-31T10:23:52;100394.75;;;13.43;100.00
59757;BME280;45631;51.962;5.974;2022-12-31T10:26:40;100378.38;;;13.49;100.00
59757;BME280;45631;51.962;5.974;2022-12-31T10:29:32;100395.09;;;13.50;100.00
59757;BME280;45631;51.962;5.974;2022-12-31T10:32:15;100393.00;;;13.53;100.00
59757;BME280;45631;51.962;5.974;2022-12-31T10:34:52;100383.44;;;13.52;100.00
59757;BME280;45631;51.962;5.974;2022-12-31T10:37:23;100385.94;;;13.54;100.00
59757;BME280;45631;51.962;5.974;2022-12-31T10:40:03;100378.56;;;13.58;100.00
59757;BME280;45631;51.962;5.974;2022-12-31T10:43:11;100386.81;;;13.64;100.00
59757;BME280;45631;51.962;5.974;2022-12-31T10:55:45;100378.91;;;13.74;100.00
59757;BME280;45631;51.962;5.974;2022-12-31T10:58:46;100392.03;;;13.76;100.00
59757;BME280;45631;51.962;5.974;2022-12-31T11:01:30;100381.69;;;13.73;100.00
59757;BME280;45631;51.962;5.974;2022-12-31T11:04:38;100394.78;;;13.74;100.00
59757;BME280;45631;51.962;5.974;2022-12-31T11:07:33;100384.78;;;13.78;100.00
59757;BME280;45631;51.962;5.974;2022-12-31T11:10:45;100387.28;;;13.79;100.00
59757;BME280;45631;51.962;5.974;2022-12-31T11:13:51;100392.03;;;13.76;100.00
59757;BME280;45631;51.962;5.974;2022-12-31T11:16:35;100380.47;;;13.77;100.00
59757;BME280;45631;51.962;5.974;2022-12-31T11:19:11;100380.34;;;13.78;100.00
59757;BME280;45631;51.962;5.974;2022-12-31T11:22:04;100378.53;;;13.79;100.00
59757;BME280;45631;51.962;5.974;2022-12-31T11:24:51;100386.19;;;13.82;100.00
59757;BME280;45631;51.962;5.974;2022-12-31T11:27:38;100373.44;;;13.87;100.00
59757;BME280;45631;51.962;5.974;2022-12-31T11:30:20;100374.84;;;13.91;100.00
59757;BME280;45631;51.962;5.974;2022-12-31T11:32:59;100370.38;;;13.92;100.00
59757;BME280;45631;51.962;5.974;2022-12-31T11:35:44;100372.78;;;13.95;100.00
59757;BME280;45631;51.962;5.974;2022-12-31T11:38:21;100382.22;;;13.97;100.00
59757;BME280;45631;51.962;5.974;2022-12-31T11:40:59;100388.22;;;13.99;100.00
59757;BME280;45631;51.962;5.974;2022-12-31T11:43:33;100393.50;;;13.99;100.00
59757;BME280;45631;51.962;5.974;2022-12-31T11:49:19;100399.78;;;14.08;100.00
59757;BME280;45631;51.962;5.974;2022-12-31T11:52:05;100379.63;;;14.07;100.00
59757;BME280;45631;51.962;5.974;2022-12-31T11:54:59;100382.03;;;14.20;100.00
59757;BME280;45631;51.962;5.974;2022-12-31T11:57:34;100377.47;;;14.22;100.00
59757;BME280;45631;51.962;5.974;2022-12-31T12:00:05;100383.44;;;14.24;100.00
59757;BME280;45631;51.962;5.974;2022-12-31T12:02:36;100390.00;;;14.30;100.00
59757;BME280;45631;51.962;5.974;2022-12-31T12:05:11;100385.84;;;14.37;100.00
59757;BME280;45631;51.962;5.974;2022-12-31T12:07:40;100389.03;;;14.41;100.00
59757;BME280;45631;51.962;5.974;2022-12-31T12:10:18;100391.41;;;14.44;100.00
59757;BME280;45631;51.962;5.974;2022-12-31T12:12:49;100399.47;;;14.42;100.00
59757;BME280;45631;51.962;5.974;2022-12-31T12:15:21;100386.00;;;14.45;100.00
59757;BME280;45631;51.962;5.974;2022-12-31T12:17:53;100399.78;;;14.49;100.00
59757;BME280;45631;51.962;5.974;2022-12-31T12:20:27;100399.53;;;14.52;100.00
59757;BME280;45631;51.962;5.974;2022-12-31T12:22:59;100410.22;;;14.50;100.00
59757;BME280;45631;51.962;5.974;2022-12-31T12:25:36;100408.69;;;14.48;100.00
59757;BME280;45631;51.962;5.974;2022-12-31T12:28:19;100414.25;;;14.45;100.00
59757;BME280;45631;51.962;5.974;2022-12-31T12:30:52;100408.53;;;14.40;100.00
59757;BME280;45631;51.962;5.974;2022-12-31T12:33:21;100404.47;;;14.35;100.00
59757;BME280;45631;51.962;5.974;2022-12-31T12:35:50;100412.97;;;14.29;100.00
59757;BME280;45631;51.962;5.974;2022-12-31T12:38:20;100408.91;;;14.25;100.00
59757;BME280;45631;51.962;5.974;2022-12-31T12:40:54;100405.69;;;14.22;100.00
59757;BME280;45631;51.962;5.974;2022-12-31T12:43:27;100414.72;;;14.19;100.00
59757;BME280;45631;51.962;5.974;2022-12-31T12:45:58;100409.28;;;14.11;100.00
59757;BME280;45631;51.962;5.974;2022-12-31T12:48:35;100405.81;;;14.10;100.00
59757;BME280;45631;51.962;5.974;2022-12-31T12:51:20;100408.72;;;14.07;100.00
59757;BME280;45631;51.962;5.974;2022-12-31T12:53:58;100412.19;;;14.08;100.00
59757;BME280;45631;51.962;5.974;2022-12-31T12:56:34;100411.38;;;14.07;100.00
59757;BME280;45631;51.962;5.974;2022-12-31T12:59:30;100405.09;;;14.08;100.00
59757;BME280;45631;51.962;5.974;2022-12-31T13:02:21;100411.38;;;14.07;100.00
59757;BME280;45631;51.962;5.974;2022-12-31T13:05:07;100404.25;;;14.08;100.00
59757;BME280;45631;51.962;5.974;2022-12-31T13:07:49;100406.63;;;14.11;100.00
59757;BME280;45631;51.962;5.974;2022-12-31T13:10:32;100406.50;;;14.12;100.00
59757;BME280;45631;51.962;5.974;2022-12-31T13:13:21;100413.03;;;14.08;100.00
59757;BME280;45631;51.962;5.974;2022-12-31T13:15:58;100415.41;;;14.11;100.00
59757;BME280;45631;51.962;5.974;2022-12-31T13:18:42;100428.50;;;14.13;100.00
59757;BME280;45631;51.962;5.974;2022-12-31T13:21:29;100424.63;;;14.17;100.00
59757;BME280;45631;51.962;5.974;2022-12-31T13:24:05;100417.78;;;14.14;100.00
59757;BME280;45631;51.962;5.974;2022-12-31T13:26:43;100433.66;;;14.14;100.00
59757;BME280;45631;51.962;5.974;2022-12-31T13:29:16;100431.47;;;14.19;100.00
59757;BME280;45631;51.962;5.974;2022-12-31T13:31:49;100432.13;;;14.22;100.00
59757;BME280;45631;51.962;5.974;2022-12-31T13:34:21;100439.38;;;14.19;100.00
59757;BME280;45631;51.962;5.974;2022-12-31T13:36:51;100431.31;;;14.21;100.00
59757;BME280;45631;51.962;5.974;2022-12-31T13:39:24;100421.97;;;14.17;100.00
59757;BME280;45631;51.962;5.974;2022-12-31T13:41:57;100421.97;;;14.17;100.00
59757;BME280;45631;51.962;5.974;2022-12-31T13:44:30;100431.47;;;14.19;100.00
59757;BME280;45631;51.962;5.974;2022-12-31T13:47:07;100427.25;;;14.17;100.00
59757;BME280;45631;51.962;5.974;2022-12-31T13:49:43;100425.59;;;14.16;100.00
59757;BME280;45631;51.962;5.974;2022-12-31T13:52:23;100424.19;;;14.12;100.00